Time;durP1;ratioP1;P1;durP2;ratioP2;P2;SDS_P1;SDS_P2;PMS_P1;PMS_P2;Temp;Humidity;BMP_temperature;BMP_pressure;BME280_temperature;BME280_humidity;BME280_pressure;Samples;Min_cycle;Max_cycle;Signal;HPM_P1;HPM_P2
2023/06/17 00:00:39;;;;;;;;;12.75;11.75;24.60;55.80;;;;;;111128;1245;45066;-63
2023/06/17 00:03:26;;;;;;;;;10.00;9.50;24.50;55.20;;;;;;111100;1244;52352;-63
2023/06/17 00:05:53;;;;;;;;;12.00;11.00;24.60;55.20;;;;;;111256;1243;49656;-63
2023/06/17 00:08:20;;;;;;;;;13.00;11.00;24.50;55.10;;;;;;111190;1242;53441;-63
2023/06/17 00:10:48;;;;;;;;;11.00;10.00;24.60;55.10;;;;;;111225;1243;45024;-63
2023/06/17 00:13:19;;;;;;;;;11.00;10.67;24.50;55.00;;;;;;111226;1243;49874;-64
2023/06/17 00:15:47;;;;;;;;;11.50;11.00;24.60;55.10;;;;;;111192;1240;50511;-64
2023/06/17 00:18:19;;;;;;;;;10.00;9.33;24.50;55.10;;;;;;111239;1243;53865;-63
2023/06/17 00:20:47;;;;;;;;;11.00;10.67;24.50;55.00;;;;;;111245;1241;44888;-63
2023/06/17 00:23:14;;;;;;;;;11.50;11.00;24.60;55.20;;;;;;111315;1243;48962;-63
2023/06/17 00:25:40;;;;;;;;;12.75;12.25;24.50;55.00;;;;;;111228;1241;49261;-64
2023/06/17 00:28:07;;;;;;;;;11.00;10.00;24.50;55.00;;;;;;111198;1243;53968;-63
2023/06/17 00:30:34;;;;;;;;;11.00;10.67;24.50;55.00;;;;;;111333;1243;44761;-63
2023/06/17 00:33:01;;;;;;;;;12.00;10.75;24.50;55.00;;;;;;111218;1243;49917;-62
2023/06/17 00:35:28;;;;;;;;;12.75;11.25;24.50;55.00;;;;;;111214;1245;49873;-62
2023/06/17 00:37:55;;;;;;;;;11.00;9.00;24.50;55.00;;;;;;111310;1240;54123;-63
2023/06/17 00:40:22;;;;;;;;;11.00;10.25;24.50;55.00;;;;;;111200;1241;44545;-63
2023/06/17 00:42:49;;;;;;;;;11.33;10.00;24.50;55.20;;;;;;111221;1243;49189;-63
2023/06/17 00:45:16;;;;;;;;;11.00;10.00;24.50;55.20;;;;;;111308;1243;49215;-63
2023/06/17 00:47:43;;;;;;;;;11.00;10.00;24.50;55.00;;;;;;111187;1243;53963;-64
2023/06/17 00:50:15;;;;;;;;;13.67;12.00;24.50;55.00;;;;;;111231;1243;45916;-63
2023/06/17 00:52:44;;;;;;;;;13.00;11.00;24.50;55.00;;;;;;111236;1244;49840;-63
2023/06/17 00:55:12;;;;;;;;;11.33;11.00;24.50;55.00;;;;;;111295;1241;49782;-63
2023/06/17 00:57:39;;;;;;;;;11.75;11.50;24.50;55.10;;;;;;111253;1241;54369;-63
2023/06/17 01:00:10;;;;;;;;;13.00;10.25;24.50;55.00;;;;;;111222;1241;44435;-63
2023/06/17 01:02:40;;;;;;;;;11.25;10.25;24.50;55.00;;;;;;111146;1244;49564;-66
2023/06/17 01:05:11;;;;;;;;;11.67;11.00;24.50;54.90;;;;;;111236;1239;49111;-65
2023/06/17 01:08:03;;;;;;;;;11.00;11.00;24.50;55.00;;;;;;111214;1240;54415;-66
2023/06/17 01:10:50;;;;;;;;;12.00;11.00;24.50;54.90;;;;;;111169;1239;44583;-63
2023/06/17 01:13:18;;;;;;;;;11.00;10.50;24.50;54.80;;;;;;111255;1242;49267;-64
2023/06/17 01:15:46;;;;;;;;;9.75;8.75;24.50;54.80;;;;;;111212;1240;49126;-65
2023/06/17 01:18:17;;;;;;;;;11.00;10.00;24.50;55.00;;;;;;111297;1244;54518;-64
2023/06/17 01:20:47;;;;;;;;;13.75;11.75;24.50;54.80;;;;;;111209;1244;44820;-63
2023/06/17 01:23:15;;;;;;;;;12.25;11.75;24.50;55.00;;;;;;111410;1242;49260;-64
2023/06/17 01:25:42;;;;;;;;;10.75;10.25;24.50;54.80;;;;;;111169;1241;49793;-64
2023/06/17 01:28:19;;;;;;;;;12.75;11.00;24.40;55.00;;;;;;111222;1243;54934;-63
2023/06/17 01:30:47;;;;;;;;;10.67;9.67;24.50;54.80;;;;;;111357;1239;44781;-63
2023/06/17 01:33:15;;;;;;;;;12.33;11.00;24.50;54.80;;;;;;111448;1240;50277;-65
2023/06/17 01:35:49;;;;;;;;;10.00;10.00;24.40;54.80;;;;;;111589;1243;50661;-64
2023/06/17 01:38:21;;;;;;;;;12.00;11.00;24.40;54.80;;;;;;111346;1245;53817;-63
2023/06/17 01:40:53;;;;;;;;;10.00;9.25;24.50;54.80;;;;;;111238;1244;44985;-62
2023/06/17 01:43:21;;;;;;;;;10.50;10.00;24.50;54.80;;;;;;111238;1241;50214;-67
2023/06/17 01:45:49;;;;;;;;;12.50;11.75;24.50;54.70;;;;;;111643;1243;49063;-63
2023/06/17 01:48:16;;;;;;;;;11.00;10.33;24.50;54.80;;;;;;111243;1241;53799;-63
2023/06/17 01:50:43;;;;;;;;;11.75;10.75;24.40;54.60;;;;;;111192;1240;48254;-64
2023/06/17 01:53:10;;;;;;;;;12.25;10.75;24.50;54.90;;;;;;111323;1243;49324;-64
2023/06/17 01:55:37;;;;;;;;;12.75;12.25;24.50;54.90;;;;;;111213;1243;50513;-65
2023/06/17 01:58:04;;;;;;;;;11.00;9.75;24.40;54.70;;;;;;111473;1240;53570;-65
2023/06/17 02:00:31;;;;;;;;;12.75;10.00;24.40;54.70;;;;;;111327;1243;45220;-64
2023/06/17 02:02:58;;;;;;;;;9.25;9.00;24.40;54.70;;;;;;111153;1244;49352;-65
2023/06/17 02:05:25;;;;;;;;;10.00;9.67;24.40;54.70;;;;;;111286;1243;49703;-64
2023/06/17 02:07:53;;;;;;;;;12.00;11.00;24.40;54.80;;;;;;111155;1243;53847;-64
2023/06/17 02:10:20;;;;;;;;;11.50;10.75;24.40;54.70;;;;;;111218;1243;44681;-64
2023/06/17 02:12:47;;;;;;;;;9.50;9.00;24.40;54.70;;;;;;111331;1242;49895;-63
2023/06/17 02:15:14;;;;;;;;;12.50;11.75;24.40;54.70;;;;;;111421;1243;50097;-64
2023/06/17 02:17:42;;;;;;;;;12.25;11.25;24.40;54.70;;;;;;111218;1243;54243;-65
2023/06/17 02:20:10;;;;;;;;;9.25;8.75;24.40;54.70;;;;;;111312;1244;44990;-64
2023/06/17 02:22:37;;;;;;;;;9.75;8.75;24.40;54.70;;;;;;111258;1243;49974;-64
2023/06/17 02:25:05;;;;;;;;;11.00;10.00;24.40;54.70;;;;;;111118;1239;49042;-63
2023/06/17 02:27:32;;;;;;;;;11.25;10.00;24.40;55.00;;;;;;111278;1240;53679;-64
2023/06/17 02:30:00;;;;;;;;;10.25;9.75;24.40;54.90;;;;;;111242;1243;44529;-66
2023/06/17 02:32:28;;;;;;;;;11.00;9.00;24.40;54.70;;;;;;111266;1240;49672;-64
2023/06/17 02:34:57;;;;;;;;;11.33;10.33;24.40;54.70;;;;;;111107;1239;49449;-64
2023/06/17 02:37:24;;;;;;;;;9.00;8.25;24.40;54.70;;;;;;111207;1243;53975;-64
2023/06/17 02:39:51;;;;;;;;;11.50;10.50;24.40;54.70;;;;;;111214;1240;44402;-64
2023/06/17 02:42:18;;;;;;;;;12.00;11.00;24.40;54.70;;;;;;111251;1241;49148;-65
2023/06/17 02:44:45;;;;;;;;;10.50;9.75;24.40;54.70;;;;;;111659;1242;50803;-64
2023/06/17 02:47:12;;;;;;;;;11.75;11.00;24.30;54.70;;;;;;111315;1242;53875;-65
2023/06/17 02:49:40;;;;;;;;;8.75;7.75;24.30;55.20;;;;;;111326;1240;44549;-65
2023/06/17 02:52:07;;;;;;;;;10.75;9.25;24.40;54.90;;;;;;111253;1241;49016;-65
2023/06/17 02:54:34;;;;;;;;;10.50;9.25;24.30;54.70;;;;;;111066;1240;48627;-64
2023/06/17 02:57:01;;;;;;;;;10.00;10.00;24.30;54.70;;;;;;111271;1241;53807;-65
2023/06/17 02:59:31;;;;;;;;;10.00;9.00;24.40;54.90;;;;;;111371;1242;44238;-65
2023/06/17 03:01:58;;;;;;;;;11.00;10.50;24.40;54.70;;;;;;111450;1240;49338;-65
2023/06/17 03:04:34;;;;;;;;;11.50;10.75;24.30;54.60;;;;;;111028;1243;50892;-64
2023/06/17 03:07:03;;;;;;;;;10.50;9.75;24.40;54.70;;;;;;111219;1242;54484;-65
2023/06/17 03:09:31;;;;;;;;;10.25;9.75;24.40;54.60;;;;;;111128;1240;45783;-64
2023/06/17 03:11:59;;;;;;;;;11.67;10.00;24.40;54.60;;;;;;111232;1241;50330;-65
2023/06/17 03:14:28;;;;;;;;;11.67;10.00;24.40;54.60;;;;;;111030;1240;49780;-64
2023/06/17 03:16:59;;;;;;;;;9.00;9.00;24.40;54.60;;;;;;111197;1241;54343;-66
2023/06/17 03:19:25;;;;;;;;;11.75;11.00;24.40;54.70;;;;;;111213;1241;44279;-65
2023/06/17 03:21:53;;;;;;;;;9.00;8.00;24.40;54.70;;;;;;111248;1239;50186;-65
2023/06/17 03:24:20;;;;;;;;;9.50;9.00;24.30;54.50;;;;;;111055;1243;49680;-65
2023/06/17 03:26:47;;;;;;;;;10.00;9.00;24.30;54.60;;;;;;111249;1243;53583;-65
2023/06/17 03:29:15;;;;;;;;;10.33;8.00;24.30;54.50;;;;;;111384;1240;44106;-64
2023/06/17 03:31:42;;;;;;;;;12.00;10.75;24.30;54.80;;;;;;111349;1243;49270;-64
2023/06/17 03:34:09;;;;;;;;;11.00;10.33;24.30;54.50;;;;;;111166;1240;49385;-64
2023/06/17 03:36:36;;;;;;;;;9.67;8.67;24.30;54.60;;;;;;111049;1240;53953;-64
2023/06/17 03:39:03;;;;;;;;;9.00;8.00;24.30;54.60;;;;;;111222;1243;44590;-64
2023/06/17 03:41:30;;;;;;;;;10.75;9.75;24.30;54.80;;;;;;111276;1243;49223;-64
2023/06/17 03:43:57;;;;;;;;;9.67;9.33;24.30;54.60;;;;;;111231;1243;48877;-66
2023/06/17 03:46:25;;;;;;;;;9.00;8.50;24.30;54.80;;;;;;111022;1243;53641;-63
2023/06/17 03:48:52;;;;;;;;;13.75;12.00;24.30;54.50;;;;;;111196;1243;44831;-63
2023/06/17 03:51:19;;;;;;;;;11.50;10.00;24.30;54.60;;;;;;111252;1243;49625;-63
2023/06/17 03:53:46;;;;;;;;;9.50;8.50;24.30;54.80;;;;;;111184;1238;49158;-66
2023/06/17 03:56:14;;;;;;;;;10.00;9.25;24.30;54.60;;;;;;111460;1241;53382;-65
2023/06/17 03:58:40;;;;;;;;;10.00;9.25;24.30;54.60;;;;;;111424;1240;44340;-64
2023/06/17 04:01:12;;;;;;;;;9.67;9.67;24.30;54.60;;;;;;111238;1241;49927;-65
2023/06/17 04:03:40;;;;;;;;;10.00;9.50;24.30;54.50;;;;;;111155;1238;49852;-65
2023/06/17 04:06:08;;;;;;;;;9.50;8.50;24.30;54.60;;;;;;111114;1238;53789;-65
2023/06/17 04:08:36;;;;;;;;;9.50;9.00;24.30;54.80;;;;;;111200;1243;44895;-63
2023/06/17 04:11:03;;;;;;;;;9.50;8.50;24.30;54.70;;;;;;111220;1242;49113;-64
2023/06/17 04:13:30;;;;;;;;;11.00;9.00;24.30;54.50;;;;;;111444;1243;49167;-63
2023/06/17 04:15:57;;;;;;;;;10.00;10.00;24.30;54.10;;;;;;111748;1242;53789;-65
2023/06/17 04:18:25;;;;;;;;;10.00;9.00;24.30;54.50;;;;;;111411;1243;44385;-63
2023/06/17 04:20:56;;;;;;;;;10.00;9.00;24.30;54.50;;;;;;111424;1243;49493;-65
2023/06/17 04:23:24;;;;;;;;;10.50;8.75;24.30;54.40;;;;;;111508;1242;49269;-64
2023/06/17 04:25:51;;;;;;;;;10.50;8.75;24.40;54.70;;;;;;111871;1241;53985;-64
2023/06/17 04:28:18;;;;;;;;;8.00;7.00;24.40;54.50;;;;;;111405;1244;45605;-66
2023/06/17 04:30:46;;;;;;;;;9.00;8.00;24.40;54.50;;;;;;111415;1238;48312;-66
2023/06/17 04:33:14;;;;;;;;;11.00;10.00;24.40;54.60;;;;;;111520;1238;49448;-63
2023/06/17 04:35:42;;;;;;;;;10.00;9.00;24.40;54.50;;;;;;111228;1243;53978;-66
2023/06/17 04:38:10;;;;;;;;;8.75;8.00;24.40;54.50;;;;;;111453;1243;45157;-66
2023/06/17 04:40:37;;;;;;;;;10.25;9.00;24.40;54.50;;;;;;111256;1239;49401;-65
2023/06/17 04:43:05;;;;;;;;;9.33;8.00;24.40;54.40;;;;;;111377;1243;49326;-66
2023/06/17 04:45:35;;;;;;;;;9.00;8.00;24.40;54.40;;;;;;111081;1240;53963;-64
2023/06/17 04:48:06;;;;;;;;;9.00;8.00;24.40;54.50;;;;;;111288;1243;44726;-64
2023/06/17 04:50:33;;;;;;;;;8.75;7.75;24.40;54.60;;;;;;111354;1244;49978;-65
2023/06/17 04:53:06;;;;;;;;;10.00;9.00;24.40;54.40;;;;;;111375;1241;49585;-65
2023/06/17 04:55:36;;;;;;;;;9.50;9.00;24.30;54.40;;;;;;111344;1243;53266;-65
2023/06/17 04:58:03;;;;;;;;;10.50;8.75;24.30;54.40;;;;;;111396;1241;44821;-64
2023/06/17 05:00:31;;;;;;;;;9.67;8.67;24.30;54.50;;;;;;111299;1243;49063;-65
2023/06/17 05:02:58;;;;;;;;;8.75;7.75;24.30;54.50;;;;;;111275;1243;50651;-64
2023/06/17 05:05:25;;;;;;;;;9.75;8.00;24.30;54.50;;;;;;111269;1243;53653;-65
2023/06/17 05:07:52;;;;;;;;;11.00;10.00;24.30;55.00;;;;;;111312;1241;45401;-65
2023/06/17 05:10:19;;;;;;;;;9.75;8.75;24.30;54.70;;;;;;111344;1239;49820;-64
2023/06/17 05:12:46;;;;;;;;;9.50;7.50;24.30;54.50;;;;;;111296;1241;50339;-64
2023/06/17 05:15:13;;;;;;;;;9.50;9.00;24.30;54.50;;;;;;111315;1240;54400;-66
2023/06/17 05:17:40;;;;;;;;;8.75;8.00;24.30;54.70;;;;;;111368;1243;45005;-65
2023/06/17 05:20:08;;;;;;;;;8.25;7.75;24.30;54.50;;;;;;111266;1243;48509;-64
2023/06/17 05:22:35;;;;;;;;;10.00;9.00;24.30;54.50;;;;;;111255;1243;49912;-66
2023/06/17 05:25:02;;;;;;;;;10.00;9.00;24.30;54.50;;;;;;111049;1239;54130;-65
2023/06/17 05:27:29;;;;;;;;;10.75;9.00;24.30;54.50;;;;;;111233;1242;44364;-65
2023/06/17 05:29:56;;;;;;;;;9.67;8.67;24.30;54.50;;;;;;111235;1244;49144;-66
2023/06/17 05:32:24;;;;;;;;;9.00;8.00;24.30;54.50;;;;;;111194;1238;49631;-64
2023/06/17 05:34:51;;;;;;;;;9.00;8.67;24.30;54.50;;;;;;111070;1240;54818;-65
2023/06/17 05:37:18;;;;;;;;;9.25;9.00;24.30;54.60;;;;;;111452;1241;44012;-63
2023/06/17 05:39:45;;;;;;;;;9.00;8.25;24.30;54.60;;;;;;111202;1243;48311;-69
2023/06/17 05:42:12;;;;;;;;;10.00;9.00;24.30;54.50;;;;;;111342;1243;50404;-65
2023/06/17 05:44:40;;;;;;;;;10.00;8.00;24.30;54.50;;;;;;111022;1242;54173;-63
2023/06/17 05:47:07;;;;;;;;;10.67;9.33;24.30;54.50;;;;;;111197;1243;45710;-64
2023/06/17 05:49:34;;;;;;;;;9.00;8.00;24.30;54.50;;;;;;111266;1240;49007;-64
2023/06/17 05:52:02;;;;;;;;;11.00;10.00;24.30;54.50;;;;;;111337;1243;48853;-64
2023/06/17 05:54:29;;;;;;;;;8.50;8.00;24.30;54.50;;;;;;111301;1239;54446;-64
2023/06/17 05:56:56;;;;;;;;;8.75;8.00;24.30;54.50;;;;;;111155;1240;45089;-65
2023/06/17 05:59:24;;;;;;;;;9.00;8.00;24.30;54.50;;;;;;111210;1238;49692;-65
2023/06/17 06:01:51;;;;;;;;;10.67;10.33;24.30;55.50;;;;;;111327;1240;49118;-63
2023/06/17 06:04:18;;;;;;;;;12.00;10.33;24.30;55.80;;;;;;111304;1243;53295;-64
2023/06/17 06:06:45;;;;;;;;;11.33;11.00;24.30;56.40;;;;;;111205;1242;44883;-66
2023/06/17 06:09:12;;;;;;;;;11.00;10.25;24.30;56.80;;;;;;111280;1240;48635;-66
2023/06/17 06:11:39;;;;;;;;;10.75;10.25;24.30;57.50;;;;;;111339;1238;50017;-65
2023/06/17 06:14:06;;;;;;;;;10.00;9.25;24.30;57.50;;;;;;111269;1241;53506;-66
2023/06/17 06:16:33;;;;;;;;;11.00;10.25;24.30;57.30;;;;;;111447;1244;45004;-66
2023/06/17 06:19:00;;;;;;;;;12.67;12.00;24.30;58.10;;;;;;111335;1243;50153;-66
2023/06/17 06:21:27;;;;;;;;;11.75;10.75;24.30;57.40;;;;;;111340;1243;49536;-66
2023/06/17 06:23:54;;;;;;;;;13.50;13.00;24.40;57.50;;;;;;111214;1240;53557;-67
2023/06/17 06:26:21;;;;;;;;;11.75;10.75;24.40;58.00;;;;;;111099;1243;45285;-66
2023/06/17 06:28:48;;;;;;;;;13.75;11.75;24.40;58.00;;;;;;111368;1243;50322;-67
2023/06/17 06:31:15;;;;;;;;;11.25;10.25;24.40;58.00;;;;;;111451;1238;49647;-63
2023/06/17 06:33:42;;;;;;;;;12.75;11.75;24.40;58.10;;;;;;111359;1241;53458;-67
2023/06/17 06:36:09;;;;;;;;;11.25;11.00;24.40;58.30;;;;;;111679;1241;44592;-64
2023/06/17 06:38:36;;;;;;;;;11.00;10.50;24.40;58.40;;;;;;111348;1243;48685;-65
2023/06/17 06:41:03;;;;;;;;;11.67;11.00;24.40;58.60;;;;;;111369;1240;49912;-65
2023/06/17 06:43:30;;;;;;;;;10.50;10.00;24.40;58.50;;;;;;111363;1240;53529;-65
2023/06/17 06:45:57;;;;;;;;;11.00;10.00;24.40;58.40;;;;;;111629;1239;44983;-65
2023/06/17 06:48:24;;;;;;;;;11.25;11.00;24.40;58.20;;;;;;111338;1243;48949;-65
2023/06/17 06:50:51;;;;;;;;;12.00;11.00;24.40;58.20;;;;;;111346;1239;50174;-65
2023/06/17 06:53:21;;;;;;;;;12.75;10.00;24.40;58.30;;;;;;111339;1243;54831;-66
2023/06/17 06:55:48;;;;;;;;;9.75;9.00;24.50;58.30;;;;;;111664;1240;44573;-66
2023/06/17 06:58:15;;;;;;;;;10.00;9.00;24.40;58.20;;;;;;111387;1243;50252;-66
2023/06/17 07:00:42;;;;;;;;;11.75;11.50;24.50;58.10;;;;;;111386;1243;48759;-65
2023/06/17 07:03:10;;;;;;;;;11.00;10.00;24.50;57.80;;;;;;111330;1244;54465;-64
2023/06/17 07:05:37;;;;;;;;;11.67;10.00;24.50;58.20;;;;;;111635;1243;44358;-65
2023/06/17 07:08:04;;;;;;;;;10.75;9.75;24.50;58.20;;;;;;111366;1240;49501;-65
2023/06/17 07:10:31;;;;;;;;;10.00;9.33;24.50;58.10;;;;;;111268;1240;49606;-68
2023/06/17 07:12:58;;;;;;;;;10.00;10.00;24.50;58.30;;;;;;111340;1238;53490;-63
2023/06/17 07:15:25;;;;;;;;;9.50;8.75;24.50;58.00;;;;;;111305;1238;45305;-63
2023/06/17 07:17:52;;;;;;;;;10.67;9.00;24.50;58.10;;;;;;111251;1238;49077;-62
2023/06/17 07:20:19;;;;;;;;;9.75;8.50;24.50;58.20;;;;;;111272;1242;49227;-62
2023/06/17 07:22:46;;;;;;;;;8.33;7.00;24.50;57.90;;;;;;111259;1244;54082;-62
2023/06/17 07:25:13;;;;;;;;;11.00;8.75;24.50;58.00;;;;;;111353;1243;44897;-62
2023/06/17 07:27:40;;;;;;;;;10.00;8.00;24.40;57.90;;;;;;111210;1241;50010;-63
2023/06/17 07:30:07;;;;;;;;;10.00;9.00;24.40;57.70;;;;;;111217;1243;49574;-63
2023/06/17 07:32:34;;;;;;;;;10.00;9.00;24.40;57.60;;;;;;111215;1243;54741;-63
2023/06/17 07:35:03;;;;;;;;;9.00;8.25;24.40;57.60;;;;;;111269;1239;44876;-62
2023/06/17 07:37:30;;;;;;;;;10.00;8.33;24.40;57.60;;;;;;111301;1240;48547;-63
2023/06/17 07:39:57;;;;;;;;;8.00;7.50;24.40;57.60;;;;;;111318;1241;49027;-62
2023/06/17 07:42:24;;;;;;;;;9.00;8.00;24.40;57.30;;;;;;111377;1243;53144;-61
2023/06/17 07:44:51;;;;;;;;;9.00;8.00;24.40;57.50;;;;;;111299;1243;44333;-65
2023/06/17 07:47:18;;;;;;;;;9.00;8.00;24.40;57.20;;;;;;111300;1243;49496;-65
2023/06/17 07:49:45;;;;;;;;;9.00;8.00;24.40;57.10;;;;;;111293;1243;49063;-70
2023/06/17 07:52:12;;;;;;;;;9.50;8.00;24.40;57.10;;;;;;111353;1239;53639;-62
2023/06/17 07:54:39;;;;;;;;;10.25;9.75;24.40;57.30;;;;;;111292;1238;45340;-62
2023/06/17 07:57:06;;;;;;;;;9.33;9.00;24.40;56.90;;;;;;111258;1240;50201;-61
2023/06/17 07:59:33;;;;;;;;;9.75;7.75;24.40;57.00;;;;;;111247;1243;50625;-62
2023/06/17 08:02:00;;;;;;;;;6.75;6.00;24.40;56.90;;;;;;111320;1240;54147;-63
2023/06/17 08:04:27;;;;;;;;;9.00;8.00;24.40;56.90;;;;;;111273;1240;45711;-60
2023/06/17 08:06:54;;;;;;;;;7.75;7.75;24.40;56.90;;;;;;111288;1240;48445;-62
2023/06/17 08:09:21;;;;;;;;;8.00;7.75;24.40;57.00;;;;;;111258;1238;49487;-62
2023/06/17 08:11:48;;;;;;;;;8.75;7.75;24.40;56.80;;;;;;111252;1238;54674;-62
2023/06/17 08:14:15;;;;;;;;;8.00;7.00;24.40;56.70;;;;;;111276;1238;44372;-62
2023/06/17 08:16:43;;;;;;;;;8.00;7.67;24.40;56.70;;;;;;111247;1241;49698;-63
2023/06/17 08:19:10;;;;;;;;;7.00;7.00;24.40;56.70;;;;;;111295;1240;48905;-62
2023/06/17 08:21:38;;;;;;;;;9.00;9.00;24.40;56.50;;;;;;111303;1240;53398;-64
2023/06/17 08:24:18;;;;;;;;;9.00;8.00;24.40;56.60;;;;;;111240;1243;44596;-61
2023/06/17 08:26:46;;;;;;;;;9.00;8.67;24.40;56.60;;;;;;111335;1239;48820;-61
2023/06/17 08:29:13;;;;;;;;;8.00;7.00;24.40;56.50;;;;;;111319;1238;48597;-62
2023/06/17 08:31:44;;;;;;;;;7.00;6.00;24.40;56.50;;;;;;111254;1243;53409;-63
2023/06/17 08:34:12;;;;;;;;;8.75;7.50;24.40;56.50;;;;;;111265;1238;45086;-62
2023/06/17 08:36:43;;;;;;;;;10.00;9.00;24.40;56.50;;;;;;111300;1239;49248;-63
2023/06/17 08:39:10;;;;;;;;;7.00;6.00;24.40;56.60;;;;;;111249;1239;48807;-62
2023/06/17 08:41:39;;;;;;;;;7.50;6.00;24.40;56.40;;;;;;111229;1243;54248;-62
2023/06/17 08:44:07;;;;;;;;;7.50;6.75;24.40;56.30;;;;;;111254;1241;44919;-62
2023/06/17 08:46:34;;;;;;;;;8.50;7.75;24.40;56.50;;;;;;111256;1240;48513;-62
2023/06/17 08:49:02;;;;;;;;;8.75;7.75;24.40;55.90;;;;;;111347;1243;49362;-62
2023/06/17 08:51:30;;;;;;;;;8.00;7.50;24.50;56.30;;;;;;111323;1243;53671;-61
2023/06/17 08:53:57;;;;;;;;;6.00;6.00;24.50;56.50;;;;;;111349;1241;44971;-61
2023/06/17 08:56:24;;;;;;;;;6.25;5.50;24.40;56.20;;;;;;111261;1238;48549;-63
2023/06/17 08:58:53;;;;;;;;;7.00;6.00;24.50;56.30;;;;;;111304;1243;49242;-61
2023/06/17 09:01:23;;;;;;;;;9.00;8.00;24.50;56.20;;;;;;111275;1243;55240;-62
2023/06/17 09:03:52;;;;;;;;;9.50;8.00;24.50;56.30;;;;;;111252;1238;45442;-62
2023/06/17 09:06:25;;;;;;;;;8.00;7.00;24.50;56.20;;;;;;111298;1243;49235;-61
2023/06/17 09:08:53;;;;;;;;;6.75;5.75;24.50;56.20;;;;;;111282;1238;49443;-61
2023/06/17 09:11:22;;;;;;;;;7.00;7.00;24.50;56.10;;;;;;111228;1240;53361;-61
2023/06/17 09:13:53;;;;;;;;;8.00;6.75;24.50;56.10;;;;;;111360;1243;45949;-61
2023/06/17 09:16:31;;;;;;;;;7.50;6.50;24.50;56.10;;;;;;111273;1240;49957;-63
2023/06/17 09:19:00;;;;;;;;;8.00;8.00;24.50;56.10;;;;;;111301;1244;49313;-61
2023/06/17 09:21:27;;;;;;;;;10.00;9.00;24.50;56.10;;;;;;111236;1238;53560;-61
2023/06/17 09:23:56;;;;;;;;;7.00;6.00;24.50;56.10;;;;;;111225;1241;44702;-62
2023/06/17 09:26:33;;;;;;;;;7.75;6.75;24.50;56.10;;;;;;111130;1239;48584;-62
2023/06/17 09:29:02;;;;;;;;;8.00;7.00;24.50;56.40;;;;;;111360;1240;48958;-63
2023/06/17 09:31:31;;;;;;;;;8.33;8.00;24.50;56.20;;;;;;111011;1245;53192;-61
2023/06/17 09:34:03;;;;;;;;;7.00;7.00;24.50;56.10;;;;;;111394;1243;44657;-62
2023/06/17 09:36:30;;;;;;;;;6.00;5.75;24.50;56.10;;;;;;111168;1243;49008;-64
2023/06/17 09:38:57;;;;;;;;;7.00;6.75;24.50;56.10;;;;;;111327;1243;49373;-65
2023/06/17 09:41:24;;;;;;;;;8.50;8.00;24.50;55.90;;;;;;111205;1241;53724;-64
2023/06/17 09:43:51;;;;;;;;;8.00;7.00;24.50;56.30;;;;;;111384;1243;44919;-61
2023/06/17 09:46:29;;;;;;;;;8.50;7.00;24.50;56.30;;;;;;111129;1239;49006;-63
2023/06/17 09:48:59;;;;;;;;;7.75;7.00;24.50;56.30;;;;;;111271;1240;48516;-62
2023/06/17 09:51:36;;;;;;;;;7.00;7.00;24.50;56.10;;;;;;111227;1243;54440;-63
2023/06/17 09:54:04;;;;;;;;;8.75;6.75;24.50;56.00;;;;;;111152;1244;45034;-63
2023/06/17 09:56:32;;;;;;;;;7.67;6.67;24.60;56.10;;;;;;111270;1243;49302;-63
2023/06/17 09:59:00;;;;;;;;;8.00;6.25;24.60;55.60;;;;;;111240;1240;48873;-61
2023/06/17 10:01:38;;;;;;;;;7.75;7.50;24.60;56.00;;;;;;111155;1241;55312;-62
2023/06/17 10:04:07;;;;;;;;;8.00;7.00;24.60;56.00;;;;;;111401;1243;44481;-64
2023/06/17 10:06:35;;;;;;;;;8.00;6.33;24.60;56.00;;;;;;111607;1243;49221;-62
2023/06/17 10:09:08;;;;;;;;;6.75;6.25;24.60;55.90;;;;;;111308;1240;49169;-63
2023/06/17 10:11:36;;;;;;;;;7.00;6.25;24.70;56.00;;;;;;111435;1243;53821;-62
2023/06/17 10:14:07;;;;;;;;;9.00;8.00;24.70;56.00;;;;;;111359;1243;45670;-61
2023/06/17 10:16:39;;;;;;;;;9.50;7.50;24.70;55.90;;;;;;111470;1240;50209;-63
2023/06/17 10:19:07;;;;;;;;;9.67;6.67;24.70;55.90;;;;;;111374;1243;49734;-63
2023/06/17 10:21:38;;;;;;;;;7.00;6.00;24.70;55.80;;;;;;111374;1241;53692;-61
2023/06/17 10:24:05;;;;;;;;;6.00;6.00;24.70;55.80;;;;;;111384;1241;45072;-63
2023/06/17 10:26:32;;;;;;;;;9.25;6.75;24.80;55.80;;;;;;111403;1241;48681;-62
2023/06/17 10:29:10;;;;;;;;;7.00;6.75;24.80;55.80;;;;;;111311;1240;48493;-64
2023/06/17 10:31:42;;;;;;;;;8.00;7.00;24.80;55.90;;;;;;111374;1243;54253;-61
2023/06/17 10:34:20;;;;;;;;;8.00;7.00;24.80;55.70;;;;;;111377;1239;45026;-62
2023/06/17 10:36:49;;;;;;;;;7.75;6.75;24.90;55.80;;;;;;111270;1241;49451;-62
2023/06/17 10:39:16;;;;;;;;;6.75;6.00;24.90;55.70;;;;;;111249;1243;48464;-62
2023/06/17 10:41:46;;;;;;;;;7.00;7.00;24.90;55.70;;;;;;111245;1240;53638;-63
2023/06/17 10:44:27;;;;;;;;;7.00;6.00;24.90;55.60;;;;;;111195;1238;44555;-63
2023/06/17 10:46:55;;;;;;;;;7.00;6.00;24.90;55.60;;;;;;111231;1243;49367;-64
2023/06/17 10:49:23;;;;;;;;;7.00;6.75;24.90;55.60;;;;;;111346;1243;48962;-63
2023/06/17 10:51:51;;;;;;;;;8.00;7.00;24.90;55.80;;;;;;111341;1240;55706;-64
2023/06/17 10:54:32;;;;;;;;;7.50;6.50;25.00;55.70;;;;;;111214;1238;45104;-61
2023/06/17 10:57:06;;;;;;;;;6.00;5.75;25.00;55.80;;;;;;111373;1238;50091;-62
2023/06/17 10:59:33;;;;;;;;;8.00;7.00;25.00;55.60;;;;;;111336;1240;48765;-62
2023/06/17 11:02:03;;;;;;;;;7.00;6.00;25.10;55.80;;;;;;111317;1243;53745;-62
2023/06/17 11:04:30;;;;;;;;;7.00;6.00;25.10;55.60;;;;;;111077;1243;44606;-62
2023/06/17 11:06:58;;;;;;;;;8.25;7.25;25.10;55.50;;;;;;111290;1241;50101;-62
2023/06/17 11:09:26;;;;;;;;;8.00;7.00;25.10;55.70;;;;;;111274;1238;49467;-61
2023/06/17 11:11:54;;;;;;;;;7.00;6.50;25.10;55.50;;;;;;111211;1244;54297;-62
2023/06/17 11:14:25;;;;;;;;;8.00;6.50;25.10;55.40;;;;;;111232;1240;45827;-62
2023/06/17 11:16:52;;;;;;;;;6.25;6.00;25.10;55.60;;;;;;111261;1238;49240;-61
2023/06/17 11:19:20;;;;;;;;;6.00;6.00;25.10;55.60;;;;;;111256;1240;49186;-65
2023/06/17 11:22:03;;;;;;;;;7.00;6.00;25.10;55.40;;;;;;111271;1243;53904;-62
2023/06/17 11:24:31;;;;;;;;;7.50;6.00;25.20;55.70;;;;;;111161;1238;44910;-61
2023/06/17 11:26:59;;;;;;;;;7.00;5.00;25.20;55.50;;;;;;110761;1243;617698;-63
2023/06/17 11:29:27;;;;;;;;;6.00;6.00;25.20;55.40;;;;;;111273;1241;49851;-65
2023/06/17 11:31:58;;;;;;;;;7.00;6.00;25.20;55.90;;;;;;111470;1239;53353;-64
2023/06/17 11:34:31;;;;;;;;;7.75;6.00;25.20;55.40;;;;;;111665;1241;44287;-65
2023/06/17 11:37:00;;;;;;;;;8.00;7.00;25.20;55.40;;;;;;111210;1243;48441;-63
2023/06/17 11:39:28;;;;;;;;;8.00;6.00;25.20;55.50;;;;;;111341;1240;49148;-64
2023/06/17 11:42:02;;;;;;;;;6.75;6.00;25.20;55.30;;;;;;111213;1238;53449;-64
2023/06/17 11:44:34;;;;;;;;;6.75;6.00;25.20;54.90;;;;;;111746;1240;44361;-64
2023/06/17 11:47:05;;;;;;;;;5.00;4.67;25.20;55.30;;;;;;111300;1243;48745;-64
2023/06/17 11:49:33;;;;;;;;;7.00;6.00;25.20;55.20;;;;;;111285;1243;48629;-65
2023/06/17 11:52:08;;;;;;;;;6.00;5.00;25.20;55.20;;;;;;111270;1240;53951;-66
2023/06/17 11:54:47;;;;;;;;;6.00;6.00;25.30;55.20;;;;;;111125;1244;44924;-64
2023/06/17 11:57:25;;;;;;;;;7.25;6.75;25.20;55.20;;;;;;111420;1243;48541;-64
2023/06/17 11:59:58;;;;;;;;;6.00;5.00;25.20;55.20;;;;;;111308;1244;49479;-64
2023/06/17 12:02:28;;;;;;;;;6.00;5.00;25.20;55.10;;;;;;111233;1240;53205;-65
2023/06/17 12:05:00;;;;;;;;;7.75;6.75;25.20;55.50;;;;;;111704;1244;45481;-62
2023/06/17 12:07:28;;;;;;;;;7.00;6.00;25.20;55.10;;;;;;111260;1241;49216;-64
2023/06/17 12:09:56;;;;;;;;;6.00;5.33;25.20;55.10;;;;;;111375;1243;48768;-64
2023/06/17 12:12:35;;;;;;;;;5.00;5.00;25.20;55.10;;;;;;111328;1243;53879;-64
2023/06/17 12:15:06;;;;;;;;;6.75;5.00;25.20;55.10;;;;;;111086;1238;44259;-63
2023/06/17 12:17:44;;;;;;;;;8.33;6.67;25.20;55.10;;;;;;111283;1243;48777;-64
2023/06/17 12:20:18;;;;;;;;;6.50;6.00;25.20;55.30;;;;;;111319;1240;49064;-65
2023/06/17 12:22:47;;;;;;;;;7.00;6.33;25.20;55.30;;;;;;111301;1241;54360;-65
2023/06/17 12:25:15;;;;;;;;;7.50;6.75;25.20;55.10;;;;;;111105;1243;44785;-63
2023/06/17 12:27:45;;;;;;;;;7.00;7.00;25.20;55.30;;;;;;111371;1238;49134;-62
2023/06/17 12:30:13;;;;;;;;;7.00;6.00;25.20;55.10;;;;;;111259;1241;48691;-62
2023/06/17 12:32:40;;;;;;;;;6.00;5.00;25.20;55.20;;;;;;111385;1241;54314;-62
2023/06/17 12:35:11;;;;;;;;;6.67;5.67;25.20;55.10;;;;;;111156;1238;44687;-63